Time,TemperatureF,DewpointF,PressureIn,WindDirection,WindDirectionDegrees,WindSpeedMPH,WindSpeedGustMPH,Humidity,HourlyPrecipIn,Conditions,Clouds,dailyrainin,SoftwareType,DateUTC
2017-03-22 00:09:00,-999.9,-99.9,29.84,North,-9999,-999.9,-999.0,-999,0.00,,,0.00,weatherlink.com 1.10,2017-03-22 04:09:00,
2017-03-22 00:24:00,-999.9,-99.9,29.84,North,-9999,-999.9,-999.0,-999,0.00,,,0.00,weatherlink.com 1.10,2017-03-22 04:24:00,
2017-03-22 00:39:00,-999.9,-99.9,29.85,North,-9999,-999.9,-999.0,-999,0.00,,,0.00,weatherlink.com 1.10,2017-03-22 04:39:00,
2017-03-22 00:54:00,-999.9,-99.9,29.85,North,-9999,-999.9,-999.0,-999,0.00,,,0.00,weatherlink.com 1.10,2017-03-22 04:54:00,
2017-03-22 01:09:00,-999.9,-99.9,29.86,North,-9999,-999.9,-999.0,-999,0.00,,,0.00,weatherlink.com 1.10,2017-03-22 05:09:00,
2017-03-22 01:25:00,-999.9,-99.9,29.88,North,-9999,-999.9,-999.0,-999,0.00,,,0.00,weatherlink.com 1.10,2017-03-22 05:25:00,
2017-03-22 01:40:00,-999.9,-99.9,29.89,North,-9999,-999.9,-999.0,-999,0.00,,,0.00,weatherlink.com 1.10,2017-03-22 05:40:00,
2017-03-22 01:55:00,-999.9,-99.9,29.90,North,-9999,-999.9,-999.0,-999,0.00,,,0.00,weatherlink.com 1.10,2017-03-22 05:55:00,
2017-03-22 02:10:00,-999.9,-99.9,29.91,North,-9999,-999.9,-999.0,-999,0.00,,,0.00,weatherlink.com 1.10,2017-03-22 06:10:00,
2017-03-22 02:25:00,-999.9,-99.9,29.92,North,-9999,-999.9,-999.0,-999,0.00,,,0.00,weatherlink.com 1.10,2017-03-22 06:25:00,
2017-03-22 02:40:00,-999.9,-99.9,29.93,North,-9999,-999.9,-999.0,-999,0.00,,,0.00,weatherlink.com 1.10,2017-03-22 06:40:00,
2017-03-22 02:55:00,-999.9,-99.9,29.93,North,-9999,-999.9,-999.0,-999,0.00,,,0.00,weatherlink.com 1.10,2017-03-22 06:55:00,
2017-03-22 03:10:00,-999.9,-99.9,29.94,North,-9999,-999.9,-999.0,-999,0.00,,,0.00,weatherlink.com 1.10,2017-03-22 07:10:00,
2017-03-22 03:25:00,-999.9,-99.9,29.96,North,-9999,-999.9,-999.0,-999,0.00,,,0.00,weatherlink.com 1.10,2017-03-22 07:25:00,
2017-03-22 03:40:00,-999.9,-99.9,29.97,North,-9999,-999.9,-999.0,-999,0.00,,,0.00,weatherlink.com 1.10,2017-03-22 07:40:00,
2017-03-22 03:55:00,-999.9,-99.9,29.98,North,-9999,-999.9,-999.0,-999,0.00,,,0.00,weatherlink.com 1.10,2017-03-22 07:55:00,
2017-03-22 04:10:00,-999.9,-99.9,29.99,North,-9999,-999.9,-999.0,-999,0.00,,,0.00,weatherlink.com 1.10,2017-03-22 08:10:00,
2017-03-22 04:25:00,-999.9,-99.9,30.00,North,-9999,-999.9,-999.0,-999,0.00,,,0.00,weatherlink.com 1.10,2017-03-22 08:25:00,
2017-03-22 04:40:00,-999.9,-99.9,30.01,North,-9999,-999.9,-999.0,-999,0.00,,,0.00,weatherlink.com 1.10,2017-03-22 08:40:00,
2017-03-22 04:56:00,-999.9,-99.9,30.02,North,-9999,-999.9,-999.0,-999,0.00,,,0.00,weatherlink.com 1.10,2017-03-22 08:56:00,
2017-03-22 05:11:00,-999.9,-99.9,30.03,North,-9999,-999.9,-999.0,-999,0.00,,,0.00,weatherlink.com 1.10,2017-03-22 09:11:00,
2017-03-22 05:26:00,-999.9,-99.9,30.05,North,-9999,-999.9,-999.0,-999,0.00,,,0.00,weatherlink.com 1.10,2017-03-22 09:26:00,
2017-03-22 05:41:00,-999.9,-99.9,30.07,North,-9999,-999.9,-999.0,-999,0.00,,,0.00,weatherlink.com 1.10,2017-03-22 09:41:00,
2017-03-22 05:56:00,-999.9,-99.9,30.08,North,-9999,-999.9,-999.0,-999,0.00,,,0.00,weatherlink.com 1.10,2017-03-22 09:56:00,
2017-03-22 06:11:00,-999.9,-99.9,30.09,North,-9999,-999.9,-999.0,-999,0.00,,,0.00,weatherlink.com 1.10,2017-03-22 10:11:00,
2017-03-22 06:26:00,-999.9,-99.9,30.11,North,-9999,-999.9,-999.0,-999,0.00,,,0.00,weatherlink.com 1.10,2017-03-22 10:26:00,
2017-03-22 06:41:00,-999.9,-99.9,30.12,North,-9999,-999.9,-999.0,-999,0.00,,,0.00,weatherlink.com 1.10,2017-03-22 10:41:00,
2017-03-22 06:56:00,-999.9,-99.9,30.14,North,-9999,-999.9,-999.0,-999,0.00,,,0.00,weatherlink.com 1.10,2017-03-22 10:56:00,
2017-03-22 07:11:00,-999.9,-99.9,30.15,North,-9999,-999.9,-999.0,-999,0.00,,,0.00,weatherlink.com 1.10,2017-03-22 11:11:00,
2017-03-22 07:26:00,-999.9,-99.9,30.16,North,-9999,-999.9,-999.0,-999,0.00,,,0.00,weatherlink.com 1.10,2017-03-22 11:26:00,
2017-03-22 07:41:00,-999.9,-99.9,30.17,North,-9999,-999.9,-999.0,-999,0.00,,,0.00,weatherlink.com 1.10,2017-03-22 11:41:00,
2017-03-22 07:56:00,-999.9,-99.9,30.18,North,-9999,-999.9,-999.0,-999,0.00,,,0.00,weatherlink.com 1.10,2017-03-22 11:56:00,
2017-03-22 08:11:00,-999.9,-99.9,30.19,North,-9999,-999.9,-999.0,-999,0.00,,,0.00,weatherlink.com 1.10,2017-03-22 12:11:00,
2017-03-22 08:27:00,-999.9,-99.9,30.20,North,-9999,-999.9,-999.0,-999,0.00,,,0.00,weatherlink.com 1.10,2017-03-22 12:27:00,
2017-03-22 08:42:00,5.2,-10.0,30.21,North,359,17.0,32.0,50,0.00,,,0.00,weatherlink.com 1.10,2017-03-22 12:42:00,
2017-03-22 08:57:00,5.2,-9.0,30.23,NNE,21,24.0,27.0,51,0.00,,,0.00,weatherlink.com 1.10,2017-03-22 12:57:00,
2017-03-22 09:12:00,4.7,-10.0,30.24,North,359,21.0,29.0,51,0.00,,,0.00,weatherlink.com 1.10,2017-03-22 13:12:00,
2017-03-22 09:27:00,5.0,-10.0,30.25,North,1,18.0,32.0,49,0.01,,,0.01,weatherlink.com 1.10,2017-03-22 13:27:00,
2017-03-22 09:42:00,5.2,-9.0,30.26,North,1,29.0,31.0,51,0.01,,,0.01,weatherlink.com 1.10,2017-03-22 13:42:00,
2017-03-22 09:57:00,5.6,-10.0,30.27,NNE,14,16.0,26.0,48,0.01,,,0.01,weatherlink.com 1.10,2017-03-22 13:57:00,
2017-03-22 10:12:00,6.0,-9.0,30.28,North,1,16.0,27.0,49,0.01,,,0.01,weatherlink.com 1.10,2017-03-22 14:12:00,
2017-03-22 10:27:00,6.0,-8.0,30.29,North,1,18.0,27.0,52,0.00,,,0.01,weatherlink.com 1.10,2017-03-22 14:27:00,
2017-03-22 10:42:00,6.3,-9.0,30.30,North,1,11.0,26.0,49,0.00,,,0.01,weatherlink.com 1.10,2017-03-22 14:42:00,
2017-03-22 10:57:00,6.7,-8.0,30.30,NNE,20,15.0,25.0,51,0.00,,,0.01,weatherlink.com 1.10,2017-03-22 14:57:00,
2017-03-22 11:12:00,6.9,-8.0,30.31,North,349,17.0,24.0,50,0.00,,,0.01,weatherlink.com 1.10,2017-03-22 15:12:00,
2017-03-22 11:27:00,6.7,-8.0,30.32,NNW,342,15.0,28.0,50,0.00,,,0.01,weatherlink.com 1.10,2017-03-22 15:27:00,
2017-03-22 11:43:00,7.0,-8.0,30.32,North,2,15.0,23.0,50,0.00,,,0.01,weatherlink.com 1.10,2017-03-22 15:43:00,
2017-03-22 11:58:00,7.4,-8.0,30.32,North,352,14.0,22.0,50,0.00,,,0.01,weatherlink.com 1.10,2017-03-22 15:58:00,
2017-03-22 12:13:00,7.9,-9.0,30.33,North,359,18.0,26.0,46,0.00,,,0.01,weatherlink.com 1.10,2017-03-22 16:13:00,
2017-03-22 12:28:00,7.7,-8.0,30.34,North,353,20.0,29.0,49,0.00,,,0.01,weatherlink.com 1.10,2017-03-22 16:28:00,
2017-03-22 12:43:00,8.6,-8.0,30.34,North,353,19.0,25.0,48,0.00,,,0.01,weatherlink.com 1.10,2017-03-22 16:43:00,
2017-03-22 12:58:00,8.6,-8.0,30.34,NNW,347,20.0,29.0,48,0.00,,,0.01,weatherlink.com 1.10,2017-03-22 16:58:00,
2017-03-22 13:13:00,9.5,-5.0,30.35,North,360,21.0,25.0,53,0.00,,,0.01,weatherlink.com 1.10,2017-03-22 17:13:00,
2017-03-22 13:28:00,9.7,-6.0,30.35,North,351,15.0,27.0,50,0.00,,,0.01,weatherlink.com 1.10,2017-03-22 17:28:00,
2017-03-22 13:43:00,10.2,-8.0,30.36,North,4,23.0,27.0,44,0.00,,,0.01,weatherlink.com 1.10,2017-03-22 17:43:00,
2017-03-22 13:58:00,10.7,-9.0,30.36,NNE,15,19.0,28.0,41,0.00,,,0.01,weatherlink.com 1.10,2017-03-22 17:58:00,
2017-03-22 14:13:00,11.2,-7.0,30.36,North,3,20.0,26.0,43,0.00,,,0.01,weatherlink.com 1.10,2017-03-22 18:13:00,
2017-03-22 14:28:00,11.6,-6.0,30.36,North,352,20.0,31.0,46,0.00,,,0.01,weatherlink.com 1.10,2017-03-22 18:28:00,
2017-03-22 14:44:00,11.9,-5.0,30.36,North,359,16.0,31.0,46,0.00,,,0.01,weatherlink.com 1.10,2017-03-22 18:44:00,
2017-03-22 14:59:00,11.4,-6.0,30.37,North,1,21.0,29.0,46,0.00,,,0.01,weatherlink.com 1.10,2017-03-22 18:59:00,
2017-03-22 15:14:00,12.4,-7.0,30.37,North,4,26.0,27.0,41,0.00,,,0.01,weatherlink.com 1.10,2017-03-22 19:14:00,
2017-03-22 15:29:00,12.8,-8.0,30.38,NW,319,14.0,25.0,39,0.00,,,0.01,weatherlink.com 1.10,2017-03-22 19:29:00,
2017-03-22 15:44:00,13.5,-7.0,30.38,North,360,25.0,25.0,40,0.00,,,0.01,weatherlink.com 1.10,2017-03-22 19:44:00,
2017-03-22 15:59:00,13.3,-9.0,30.38,NNW,342,17.0,31.0,37,0.00,,,0.01,weatherlink.com 1.10,2017-03-22 19:59:00,
2017-03-22 16:14:00,13.6,-8.0,30.38,NNW,331,22.0,26.0,37,0.00,,,0.01,weatherlink.com 1.10,2017-03-22 20:14:00,
2017-03-22 16:29:00,14.0,-8.0,30.38,North,359,15.0,24.0,37,0.00,,,0.01,weatherlink.com 1.10,2017-03-22 20:29:00,
2017-03-22 16:44:00,14.4,-7.0,30.39,North,354,17.0,25.0,38,0.00,,,0.01,weatherlink.com 1.10,2017-03-22 20:44:00,
2017-03-22 16:59:00,14.6,-9.0,30.39,NNW,336,16.0,26.0,34,0.00,,,0.01,weatherlink.com 1.10,2017-03-22 20:59:00,
2017-03-22 17:14:00,14.9,-8.0,30.39,NNW,342,10.0,24.0,36,0.00,,,0.01,weatherlink.com 1.10,2017-03-22 21:14:00,
2017-03-22 17:29:00,15.4,-8.0,30.40,NNW,347,16.0,22.0,35,0.00,,,0.01,weatherlink.com 1.10,2017-03-22 21:29:00,
2017-03-22 17:44:00,15.4,-8.0,30.41,NW,320,8.0,23.0,35,0.00,,,0.01,weatherlink.com 1.10,2017-03-22 21:44:00,
2017-03-22 18:00:00,15.6,-8.0,30.41,North,351,12.0,22.0,34,0.00,,,0.01,weatherlink.com 1.10,2017-03-22 22:00:00,
2017-03-22 18:15:00,15.6,-9.0,30.41,NNW,344,17.0,24.0,33,0.00,,,0.01,weatherlink.com 1.10,2017-03-22 22:15:00,